sensor_id;sensor_type;location;lat;lon;timestamp;temperature;humidity
975;DHT22;6115;49.296;10.602;2023-07-28T00:00:43;17.30;85.50
975;DHT22;6115;49.296;10.602;2023-07-28T00:05:44;17.30;85.90
975;DHT22;6115;49.296;10.602;2023-07-28T00:10:44;17.30;85.70
975;DHT22;6115;49.296;10.602;2023-07-28T00:15:45;17.30;86.10
975;DHT22;6115;49.296;10.602;2023-07-28T00:20:45;17.30;86.10
975;DHT22;6115;49.296;10.602;2023-07-28T00:25:46;17.20;86.00
975;DHT22;6115;49.296;10.602;2023-07-28T00:30:50;17.20;86.00
975;DHT22;6115;49.296;10.602;2023-07-28T00:35:50;17.20;85.90
975;DHT22;6115;49.296;10.602;2023-07-28T00:40:51;17.30;86.10
975;DHT22;6115;49.296;10.602;2023-07-28T00:45:51;17.20;86.00
975;DHT22;6115;49.296;10.602;2023-07-28T00:50:53;17.20;86.00
975;DHT22;6115;49.296;10.602;2023-07-28T00:55:55;17.20;86.00
975;DHT22;6115;49.296;10.602;2023-07-28T01:00:56;17.30;86.10
975;DHT22;6115;49.296;10.602;2023-07-28T01:06:13;17.30;86.10
975;DHT22;6115;49.296;10.602;2023-07-28T01:11:15;17.30;86.10
975;DHT22;6115;49.296;10.602;2023-07-28T01:16:15;17.20;86.10
975;DHT22;6115;49.296;10.602;2023-07-28T01:21:25;17.20;86.60
975;DHT22;6115;49.296;10.602;2023-07-28T01:26:35;17.20;86.90
975;DHT22;6115;49.296;10.602;2023-07-28T01:31:36;17.20;87.00
975;DHT22;6115;49.296;10.602;2023-07-28T01:36:37;17.30;87.10
975;DHT22;6115;49.296;10.602;2023-07-28T01:41:37;17.30;87.00
975;DHT22;6115;49.296;10.602;2023-07-28T01:46:40;17.20;86.80
975;DHT22;6115;49.296;10.602;2023-07-28T01:51:40;17.20;86.60
975;DHT22;6115;49.296;10.602;2023-07-28T01:56:41;17.20;86.60
975;DHT22;6115;49.296;10.602;2023-07-28T02:01:42;17.20;86.80
975;DHT22;6115;49.296;10.602;2023-07-28T02:06:42;17.20;86.90
975;DHT22;6115;49.296;10.602;2023-07-28T02:11:43;17.20;87.10
975;DHT22;6115;49.296;10.602;2023-07-28T02:16:43;17.20;87.10
975;DHT22;6115;49.296;10.602;2023-07-28T02:21:44;17.20;87.30
975;DHT22;6115;49.296;10.602;2023-07-28T02:26:44;17.20;87.40
975;DHT22;6115;49.296;10.602;2023-07-28T02:31:45;17.20;87.30
975;DHT22;6115;49.296;10.602;2023-07-28T02:36:45;17.20;87.10
975;DHT22;6115;49.296;10.602;2023-07-28T02:41:46;17.20;87.10
975;DHT22;6115;49.296;10.602;2023-07-28T02:46:46;17.20;86.80
975;DHT22;6115;49.296;10.602;2023-07-28T02:51:47;17.10;86.80
975;DHT22;6115;49.296;10.602;2023-07-28T02:56:47;17.10;86.90
975;DHT22;6115;49.296;10.602;2023-07-28T03:01:48;17.10;86.80
975;DHT22;6115;49.296;10.602;2023-07-28T03:06:49;17.10;86.90
975;DHT22;6115;49.296;10.602;2023-07-28T03:11:49;17.20;87.20
975;DHT22;6115;49.296;10.602;2023-07-28T03:16:52;17.10;86.80
975;DHT22;6115;49.296;10.602;2023-07-28T03:21:52;17.10;86.90
975;DHT22;6115;49.296;10.602;2023-07-28T03:26:53;17.20;86.70
975;DHT22;6115;49.296;10.602;2023-07-28T03:31:53;17.10;86.60
975;DHT22;6115;49.296;10.602;2023-07-28T03:36:54;17.10;86.70
975;DHT22;6115;49.296;10.602;2023-07-28T03:41:54;17.20;86.70
975;DHT22;6115;49.296;10.602;2023-07-28T03:46:55;17.10;86.70
975;DHT22;6115;49.296;10.602;2023-07-28T03:51:55;17.10;86.90
975;DHT22;6115;49.296;10.602;2023-07-28T03:56:56;17.00;87.00
975;DHT22;6115;49.296;10.602;2023-07-28T04:01:56;17.00;87.40
975;DHT22;6115;49.296;10.602;2023-07-28T04:06:57;17.10;87.40
975;DHT22;6115;49.296;10.602;2023-07-28T04:11:58;17.10;87.20
975;DHT22;6115;49.296;10.602;2023-07-28T04:16:58;17.10;87.10
975;DHT22;6115;49.296;10.602;2023-07-28T04:22:00;17.10;87.20
975;DHT22;6115;49.296;10.602;2023-07-28T04:27:01;17.20;87.50
975;DHT22;6115;49.296;10.602;2023-07-28T04:32:01;17.20;87.60
975;DHT22;6115;49.296;10.602;2023-07-28T04:37:02;17.20;87.80
975;DHT22;6115;49.296;10.602;2023-07-28T04:42:03;17.30;88.00
975;DHT22;6115;49.296;10.602;2023-07-28T04:47:03;17.30;88.00
975;DHT22;6115;49.296;10.602;2023-07-28T04:52:04;17.30;87.90
975;DHT22;6115;49.296;10.602;2023-07-28T04:57:05;17.30;87.90
975;DHT22;6115;49.296;10.602;2023-07-28T05:02:06;17.40;88.00
975;DHT22;6115;49.296;10.602;2023-07-28T05:07:06;17.40;87.90
975;DHT22;6115;49.296;10.602;2023-07-28T05:12:07;17.40;88.00
975;DHT22;6115;49.296;10.602;2023-07-28T05:17:08;17.40;88.10
975;DHT22;6115;49.296;10.602;2023-07-28T05:22:08;17.40;87.90
975;DHT22;6115;49.296;10.602;2023-07-28T05:27:09;17.30;87.80
975;DHT22;6115;49.296;10.602;2023-07-28T05:32:09;17.30;88.00
975;DHT22;6115;49.296;10.602;2023-07-28T05:37:10;17.30;88.30
975;DHT22;6115;49.296;10.602;2023-07-28T05:42:11;17.20;88.40
975;DHT22;6115;49.296;10.602;2023-07-28T05:47:11;17.30;88.50
975;DHT22;6115;49.296;10.602;2023-07-28T05:52:12;17.30;88.70
975;DHT22;6115;49.296;10.602;2023-07-28T05:57:13;17.40;88.70
975;DHT22;6115;49.296;10.602;2023-07-28T06:02:13;17.40;88.60
975;DHT22;6115;49.296;10.602;2023-07-28T06:07:14;17.40;88.60
975;DHT22;6115;49.296;10.602;2023-07-28T06:12:14;17.50;88.60
975;DHT22;6115;49.296;10.602;2023-07-28T06:17:16;17.50;88.70
975;DHT22;6115;49.296;10.602;2023-07-28T06:22:17;17.60;88.70
975;DHT22;6115;49.296;10.602;2023-07-28T06:27:17;17.70;88.80
975;DHT22;6115;49.296;10.602;2023-07-28T06:32:18;17.70;88.50
975;DHT22;6115;49.296;10.602;2023-07-28T06:37:20;17.70;88.20
975;DHT22;6115;49.296;10.602;2023-07-28T06:42:21;17.70;87.80
975;DHT22;6115;49.296;10.602;2023-07-28T06:47:24;17.70;87.90
975;DHT22;6115;49.296;10.602;2023-07-28T06:52:24;17.70;87.90
975;DHT22;6115;49.296;10.602;2023-07-28T06:57:25;17.80;88.00
975;DHT22;6115;49.296;10.602;2023-07-28T07:02:25;17.90;88.10
975;DHT22;6115;49.296;10.602;2023-07-28T07:07:26;18.00;88.10
975;DHT22;6115;49.296;10.602;2023-07-28T07:12:27;18.00;87.80
975;DHT22;6115;49.296;10.602;2023-07-28T07:17:27;18.20;88.10
975;DHT22;6115;49.296;10.602;2023-07-28T07:22:28;18.30;87.70
975;DHT22;6115;49.296;10.602;2023-07-28T07:27:29;18.40;87.20
975;DHT22;6115;49.296;10.602;2023-07-28T07:32:29;18.40;87.20
975;DHT22;6115;49.296;10.602;2023-07-28T07:37:30;18.30;86.40
975;DHT22;6115;49.296;10.602;2023-07-28T07:42:47;18.40;87.00
975;DHT22;6115;49.296;10.602;2023-07-28T07:47:48;18.50;86.90
975;DHT22;6115;49.296;10.602;2023-07-28T07:52:49;18.50;85.70
975;DHT22;6115;49.296;10.602;2023-07-28T07:57:50;18.50;85.90
975;DHT22;6115;49.296;10.602;2023-07-28T08:02:50;18.70;86.90
975;DHT22;6115;49.296;10.602;2023-07-28T08:07:51;18.70;86.40
975;DHT22;6115;49.296;10.602;2023-07-28T08:12:51;18.70;86.20
975;DHT22;6115;49.296;10.602;2023-07-28T08:17:52;18.60;86.00
975;DHT22;6115;49.296;10.602;2023-07-28T08:22:52;18.60;86.60
975;DHT22;6115;49.296;10.602;2023-07-28T08:27:53;18.60;87.40
975;DHT22;6115;49.296;10.602;2023-07-28T08:32:53;18.60;87.40
975;DHT22;6115;49.296;10.602;2023-07-28T08:37:54;18.60;87.40
975;DHT22;6115;49.296;10.602;2023-07-28T08:42:54;18.70;87.50
975;DHT22;6115;49.296;10.602;2023-07-28T08:47:55;19.00;88.10
975;DHT22;6115;49.296;10.602;2023-07-28T08:52:56;19.20;87.60
975;DHT22;6115;49.296;10.602;2023-07-28T08:58:20;19.60;85.70
975;DHT22;6115;49.296;10.602;2023-07-28T09:03:21;19.60;83.50
975;DHT22;6115;49.296;10.602;2023-07-28T09:08:22;19.80;83.40
975;DHT22;6115;49.296;10.602;2023-07-28T09:13:24;19.80;81.60
975;DHT22;6115;49.296;10.602;2023-07-28T09:18:25;19.50;78.90
975;DHT22;6115;49.296;10.602;2023-07-28T09:23:30;19.30;79.90
975;DHT22;6115;49.296;10.602;2023-07-28T09:28:38;19.10;82.00
975;DHT22;6115;49.296;10.602;2023-07-28T09:33:39;19.10;83.10
975;DHT22;6115;49.296;10.602;2023-07-28T09:38:43;19.10;83.90
975;DHT22;6115;49.296;10.602;2023-07-28T09:43:44;19.20;85.00
975;DHT22;6115;49.296;10.602;2023-07-28T09:48:48;19.30;85.20
975;DHT22;6115;49.296;10.602;2023-07-28T09:53:58;19.20;83.30
975;DHT22;6115;49.296;10.602;2023-07-28T09:59:04;19.30;83.40
975;DHT22;6115;49.296;10.602;2023-07-28T10:04:07;19.50;84.10
975;DHT22;6115;49.296;10.602;2023-07-28T10:09:08;19.80;83.00
975;DHT22;6115;49.296;10.602;2023-07-28T10:14:09;19.90;81.20
975;DHT22;6115;49.296;10.602;2023-07-28T10:19:12;20.10;81.00
975;DHT22;6115;49.296;10.602;2023-07-28T10:24:12;20.20;79.30
975;DHT22;6115;49.296;10.602;2023-07-28T10:29:15;20.30;78.40
975;DHT22;6115;49.296;10.602;2023-07-28T10:34:17;20.40;76.60
975;DHT22;6115;49.296;10.602;2023-07-28T10:39:17;20.70;75.80
975;DHT22;6115;49.296;10.602;2023-07-28T10:44:18;21.00;75.70
975;DHT22;6115;49.296;10.602;2023-07-28T10:49:19;21.30;73.20
975;DHT22;6115;49.296;10.602;2023-07-28T10:54:20;21.60;73.00
975;DHT22;6115;49.296;10.602;2023-07-28T10:59:21;22.00;70.80
975;DHT22;6115;49.296;10.602;2023-07-28T11:04:22;22.10;69.10
975;DHT22;6115;49.296;10.602;2023-07-28T11:09:23;21.90;67.60
975;DHT22;6115;49.296;10.602;2023-07-28T11:14:24;21.90;68.20
975;DHT22;6115;49.296;10.602;2023-07-28T11:19:25;21.90;66.60
975;DHT22;6115;49.296;10.602;2023-07-28T11:24:26;21.90;66.10
975;DHT22;6115;49.296;10.602;2023-07-28T11:29:26;22.00;66.90
975;DHT22;6115;49.296;10.602;2023-07-28T11:34:28;22.20;65.10
975;DHT22;6115;49.296;10.602;2023-07-28T11:39:34;22.00;66.10
975;DHT22;6115;49.296;10.602;2023-07-28T11:44:35;21.90;66.00
975;DHT22;6115;49.296;10.602;2023-07-28T11:49:48;22.10;64.90
975;DHT22;6115;49.296;10.602;2023-07-28T11:54:51;22.10;63.90
975;DHT22;6115;49.296;10.602;2023-07-28T11:59:52;22.30;62.60
975;DHT22;6115;49.296;10.602;2023-07-28T12:04:53;22.50;61.40
975;DHT22;6115;49.296;10.602;2023-07-28T12:09:55;22.50;61.40
975;DHT22;6115;49.296;10.602;2023-07-28T12:14:59;22.40;61.30
975;DHT22;6115;49.296;10.602;2023-07-28T12:20:08;22.40;61.30
975;DHT22;6115;49.296;10.602;2023-07-28T12:25:14;22.30;61.20
975;DHT22;6115;49.296;10.602;2023-07-28T12:30:15;22.30;61.20
975;DHT22;6115;49.296;10.602;2023-07-28T12:35:16;22.50;61.60
975;DHT22;6115;49.296;10.602;2023-07-28T12:40:18;22.60;61.50
975;DHT22;6115;49.296;10.602;2023-07-28T12:45:19;22.60;60.00
975;DHT22;6115;49.296;10.602;2023-07-28T12:50:23;22.90;59.80
975;DHT22;6115;49.296;10.602;2023-07-28T12:55:25;23.10;59.40
975;DHT22;6115;49.296;10.602;2023-07-28T13:00:27;23.20;58.90
975;DHT22;6115;49.296;10.602;2023-07-28T13:05:28;23.10;57.50
975;DHT22;6115;49.296;10.602;2023-07-28T13:10:28;23.20;58.20
975;DHT22;6115;49.296;10.602;2023-07-28T13:15:29;23.60;58.40
975;DHT22;6115;49.296;10.602;2023-07-28T13:20:29;23.90;57.90
975;DHT22;6115;49.296;10.602;2023-07-28T13:25:30;24.20;56.40
975;DHT22;6115;49.296;10.602;2023-07-28T13:30:31;24.00;54.90
975;DHT22;6115;49.296;10.602;2023-07-28T13:35:31;23.60;56.10
975;DHT22;6115;49.296;10.602;2023-07-28T13:40:31;23.60;57.10
975;DHT22;6115;49.296;10.602;2023-07-28T13:45:32;23.80;56.30
975;DHT22;6115;49.296;10.602;2023-07-28T13:50:33;23.90;56.30
975;DHT22;6115;49.296;10.602;2023-07-28T13:55:33;23.60;56.00
975;DHT22;6115;49.296;10.602;2023-07-28T14:00:34;23.30;56.40
975;DHT22;6115;49.296;10.602;2023-07-28T14:05:34;23.20;57.30
975;DHT22;6115;49.296;10.602;2023-07-28T14:10:36;23.20;57.30
975;DHT22;6115;49.296;10.602;2023-07-28T14:15:39;23.60;57.60
975;DHT22;6115;49.296;10.602;2023-07-28T14:20:39;23.90;56.50
975;DHT22;6115;49.296;10.602;2023-07-28T14:25:40;23.90;56.40
975;DHT22;6115;49.296;10.602;2023-07-28T14:30:40;23.90;56.40
975;DHT22;6115;49.296;10.602;2023-07-28T14:35:43;23.80;56.90
975;DHT22;6115;49.296;10.602;2023-07-28T14:40:43;23.60;57.60
975;DHT22;6115;49.296;10.602;2023-07-28T14:45:49;23.50;57.40
975;DHT22;6115;49.296;10.602;2023-07-28T14:50:51;23.20;57.30
975;DHT22;6115;49.296;10.602;2023-07-28T14:55:51;22.80;57.50
975;DHT22;6115;49.296;10.602;2023-07-28T15:00:52;22.70;58.90
975;DHT22;6115;49.296;10.602;2023-07-28T15:05:56;22.50;59.20
975;DHT22;6115;49.296;10.602;2023-07-28T15:10:57;22.30;60.30
975;DHT22;6115;49.296;10.602;2023-07-28T15:15:58;22.20;61.20
975;DHT22;6115;49.296;10.602;2023-07-28T15:20:58;22.00;63.90
975;DHT22;6115;49.296;10.602;2023-07-28T15:26:00;21.80;64.50
975;DHT22;6115;49.296;10.602;2023-07-28T15:31:01;21.60;65.70
975;DHT22;6115;49.296;10.602;2023-07-28T15:36:02;21.40;67.20
975;DHT22;6115;49.296;10.602;2023-07-28T15:41:02;21.40;68.90
975;DHT22;6115;49.296;10.602;2023-07-28T15:46:03;21.20;69.80
975;DHT22;6115;49.296;10.602;2023-07-28T15:51:04;21.00;70.90
975;DHT22;6115;49.296;10.602;2023-07-28T15:56:07;20.90;72.40
975;DHT22;6115;49.296;10.602;2023-07-28T16:01:12;20.80;74.00
975;DHT22;6115;49.296;10.602;2023-07-28T16:06:12;20.60;74.80
975;DHT22;6115;49.296;10.602;2023-07-28T16:11:13;20.60;74.80
975;DHT22;6115;49.296;10.602;2023-07-28T16:16:15;20.60;76.00
975;DHT22;6115;49.296;10.602;2023-07-28T16:21:16;20.50;77.60
975;DHT22;6115;49.296;10.602;2023-07-28T16:26:17;20.50;78.70
975;DHT22;6115;49.296;10.602;2023-07-28T16:31:17;20.30;79.40
975;DHT22;6115;49.296;10.602;2023-07-28T16:36:18;20.20;80.10
975;DHT22;6115;49.296;10.602;2023-07-28T16:41:19;20.00;80.70
975;DHT22;6115;49.296;10.602;2023-07-28T16:46:19;19.90;80.20
975;DHT22;6115;49.296;10.602;2023-07-28T16:51:20;19.80;81.10
975;DHT22;6115;49.296;10.602;2023-07-28T16:56:20;19.70;80.70
975;DHT22;6115;49.296;10.602;2023-07-28T17:01:21;19.70;81.70
975;DHT22;6115;49.296;10.602;2023-07-28T17:06:22;19.60;81.00
975;DHT22;6115;49.296;10.602;2023-07-28T17:11:23;19.50;81.20
975;DHT22;6115;49.296;10.602;2023-07-28T17:16:24;19.60;81.90
975;DHT22;6115;49.296;10.602;2023-07-28T17:21:25;19.60;81.80
975;DHT22;6115;49.296;10.602;2023-07-28T17:26:25;19.50;81.30
975;DHT22;6115;49.296;10.602;2023-07-28T17:31:26;19.50;81.50
975;DHT22;6115;49.296;10.602;2023-07-28T17:36:27;19.50;81.70
975;DHT22;6115;49.296;10.602;2023-07-28T17:41:27;19.60;81.90
975;DHT22;6115;49.296;10.602;2023-07-28T17:46:28;19.60;81.70
975;DHT22;6115;49.296;10.602;2023-07-28T17:51:28;19.60;81.70
975;DHT22;6115;49.296;10.602;2023-07-28T17:56:29;19.60;81.50
975;DHT22;6115;49.296;10.602;2023-07-28T18:01:29;19.50;81.60
975;DHT22;6115;49.296;10.602;2023-07-28T18:06:30;19.50;82.00
975;DHT22;6115;49.296;10.602;2023-07-28T18:11:31;19.40;82.30
975;DHT22;6115;49.296;10.602;2023-07-28T18:16:32;19.30;82.10
975;DHT22;6115;49.296;10.602;2023-07-28T18:21:32;19.20;82.20
975;DHT22;6115;49.296;10.602;2023-07-28T18:26:33;19.20;82.60
975;DHT22;6115;49.296;10.602;2023-07-28T18:31:33;19.20;83.20
975;DHT22;6115;49.296;10.602;2023-07-28T18:36:34;19.20;83.30
975;DHT22;6115;49.296;10.602;2023-07-28T18:41:35;19.20;83.60
975;DHT22;6115;49.296;10.602;2023-07-28T18:46:35;19.20;83.70
975;DHT22;6115;49.296;10.602;2023-07-28T18:51:36;19.10;83.70
975;DHT22;6115;49.296;10.602;2023-07-28T18:56:36;19.10;83.80
975;DHT22;6115;49.296;10.602;2023-07-28T19:01:37;19.10;83.90
975;DHT22;6115;49.296;10.602;2023-07-28T19:06:37;19.00;83.90
975;DHT22;6115;49.296;10.602;2023-07-28T19:11:40;18.90;83.90
975;DHT22;6115;49.296;10.602;2023-07-28T19:16:40;19.00;84.30
975;DHT22;6115;49.296;10.602;2023-07-28T19:21:41;18.90;84.30
975;DHT22;6115;49.296;10.602;2023-07-28T19:26:41;18.90;84.10
975;DHT22;6115;49.296;10.602;2023-07-28T19:31:42;19.00;84.20
975;DHT22;6115;49.296;10.602;2023-07-28T19:36:42;18.90;84.00
975;DHT22;6115;49.296;10.602;2023-07-28T19:41:43;18.90;83.80
975;DHT22;6115;49.296;10.602;2023-07-28T19:46:44;18.80;83.60
975;DHT22;6115;49.296;10.602;2023-07-28T19:51:44;18.80;83.80
975;DHT22;6115;49.296;10.602;2023-07-28T19:56:45;18.80;84.20
975;DHT22;6115;49.296;10.602;2023-07-28T20:01:46;18.80;84.70
975;DHT22;6115;49.296;10.602;2023-07-28T20:06:47;18.80;84.70
975;DHT22;6115;49.296;10.602;2023-07-28T20:11:48;18.70;84.60
975;DHT22;6115;49.296;10.602;2023-07-28T20:16:49;18.70;84.80
975;DHT22;6115;49.296;10.602;2023-07-28T20:21:49;18.80;85.10
975;DHT22;6115;49.296;10.602;2023-07-28T20:26:50;18.80;85.30
975;DHT22;6115;49.296;10.602;2023-07-28T20:31:50;18.80;85.30
975;DHT22;6115;49.296;10.602;2023-07-28T20:36:51;18.70;85.60
975;DHT22;6115;49.296;10.602;2023-07-28T20:41:52;18.70;85.30
975;DHT22;6115;49.296;10.602;2023-07-28T20:46:52;18.60;85.30
975;DHT22;6115;49.296;10.602;2023-07-28T20:51:53;18.60;86.00
975;DHT22;6115;49.296;10.602;2023-07-28T20:56:53;18.70;85.90
975;DHT22;6115;49.296;10.602;2023-07-28T21:01:54;18.70;85.70
975;DHT22;6115;49.296;10.602;2023-07-28T21:06:54;18.70;85.70
975;DHT22;6115;49.296;10.602;2023-07-28T21:11:55;18.70;85.60
975;DHT22;6115;49.296;10.602;2023-07-28T21:16:56;18.70;85.30
975;DHT22;6115;49.296;10.602;2023-07-28T21:21:56;18.60;85.00
975;DHT22;6115;49.296;10.602;2023-07-28T21:26:57;18.60;85.30
975;DHT22;6115;49.296;10.602;2023-07-28T21:31:58;18.60;85.40
975;DHT22;6115;49.296;10.602;2023-07-28T21:36:58;18.70;85.40
975;DHT22;6115;49.296;10.602;2023-07-28T21:42:05;18.70;85.20
975;DHT22;6115;49.296;10.602;2023-07-28T21:47:07;18.60;85.10
975;DHT22;6115;49.296;10.602;2023-07-28T21:52:07;18.60;84.90
975;DHT22;6115;49.296;10.602;2023-07-28T21:57:08;18.60;84.90
975;DHT22;6115;49.296;10.602;2023-07-28T22:02:08;18.60;84.70
975;DHT22;6115;49.296;10.602;2023-07-28T22:07:11;18.50;84.60
975;DHT22;6115;49.296;10.602;2023-07-28T22:12:11;18.50;84.60
975;DHT22;6115;49.296;10.602;2023-07-28T22:17:12;18.50;84.90
975;DHT22;6115;49.296;10.602;2023-07-28T22:22:12;18.50;85.10
975;DHT22;6115;49.296;10.602;2023-07-28T22:27:13;18.50;85.00
975;DHT22;6115;49.296;10.602;2023-07-28T22:32:13;18.40;85.00
975;DHT22;6115;49.296;10.602;2023-07-28T22:37:14;18.40;85.20
975;DHT22;6115;49.296;10.602;2023-07-28T22:42:14;18.40;85.20
975;DHT22;6115;49.296;10.602;2023-07-28T22:47:15;18.40;85.30
975;DHT22;6115;49.296;10.602;2023-07-28T22:52:16;18.40;85.30
975;DHT22;6115;49.296;10.602;2023-07-28T22:57:16;18.40;85.30
975;DHT22;6115;49.296;10.602;2023-07-28T23:02:16;18.40;85.20
975;DHT22;6115;49.296;10.602;2023-07-28T23:07:17;18.30;85.20
975;DHT22;6115;49.296;10.602;2023-07-28T23:12:17;18.30;85.20
975;DHT22;6115;49.296;10.602;2023-07-28T23:17:18;18.40;85.40
975;DHT22;6115;49.296;10.602;2023-07-28T23:22:19;18.30;85.50
975;DHT22;6115;49.296;10.602;2023-07-28T23:27:19;18.30;85.70
975;DHT22;6115;49.296;10.602;2023-07-28T23:32:21;18.30;86.00
975;DHT22;6115;49.296;10.602;2023-07-28T23:37:22;18.30;85.90
975;DHT22;6115;49.296;10.602;2023-07-28T23:42:22;18.30;86.40
975;DHT22;6115;49.296;10.602;2023-07-28T23:47:23;18.30;85.50
975;DHT22;6115;49.296;10.602;2023-07-28T23:52:24;18.30;85.50
975;DHT22;6115;49.296;10.602;2023-07-28T23:57:24;18.30;85.80
